Time;durP1;ratioP1;P1;durP2;ratioP2;P2;SDS_P1;SDS_P2;PMS_P1;PMS_P2;Temp;Humidity;BMP_temperature;BMP_pressure;BME280_temperature;BME280_humidity;BME280_pressure;Samples;Min_cycle;Max_cycle;Signal;HPM_P1;HPM_P2
2021/12/22 00:00:58;;;;;;;24.15;14.38;;;;;;;1.24;100.00;102248.63;4981673;28;20436;-71
2021/12/22 00:03:47;;;;;;;25.75;14.05;;;;;;;1.18;100.00;102250.94;4982309;28;20529;-72
2021/12/22 00:06:34;;;;;;;21.83;13.57;;;;;;;1.27;100.00;102256.50;4995399;28;20359;-71
2021/12/22 00:09:20;;;;;;;20.67;13.00;;;;;;;1.51;100.00;102251.50;4981697;28;20041;-73
2021/12/22 00:12:07;;;;;;;20.90;12.20;;;;;;;1.36;100.00;102256.91;4995958;28;20030;-71
2021/12/22 00:14:52;;;;;;;22.75;12.00;;;;;;;1.29;100.00;102261.75;4995576;28;20447;-71
2021/12/22 00:17:39;;;;;;;23.67;13.23;;;;;;;1.30;100.00;102263.50;4993799;28;20034;-71
2021/12/22 00:20:24;;;;;;;30.30;15.45;;;;;;;1.04;100.00;102262.34;4995138;28;20034;-71
2021/12/22 00:23:10;;;;;;;45.00;20.48;;;;;;;0.94;100.00;102267.91;4994780;28;20105;-71
2021/12/22 00:25:57;;;;;;;31.63;17.17;;;;;;;0.89;100.00;102277.13;4980085;28;20033;-72
2021/12/22 00:28:45;;;;;;;29.88;16.23;;;;;;;0.77;100.00;102273.09;4994994;28;20463;-72
2021/12/22 00:31:38;;;;;;;28.58;16.20;;;;;;;0.82;100.00;102280.25;4995401;28;20113;-72
2021/12/22 00:34:27;;;;;;;28.02;15.65;;;;;;;0.53;100.00;102278.00;4995235;28;20113;-71
2021/12/22 00:37:15;;;;;;;27.70;15.13;;;;;;;0.41;100.00;102276.53;4981276;28;20034;-72
2021/12/22 00:40:01;;;;;;;27.15;15.10;;;;;;;0.15;100.00;102288.13;4994648;28;20109;-71
2021/12/22 00:42:47;;;;;;;27.77;14.32;;;;;;;0.17;100.00;102283.06;4995780;28;20334;-73
2021/12/22 00:45:35;;;;;;;25.48;14.52;;;;;;;-0.14;100.00;102285.81;4994719;28;20023;-71
2021/12/22 00:48:20;;;;;;;26.48;14.60;;;;;;;0.08;100.00;102280.03;4994837;28;20022;-72
2021/12/22 00:51:06;;;;;;;25.67;14.10;;;;;;;0.00;100.00;102290.84;4994498;28;20447;-71
2021/12/22 00:53:52;;;;;;;24.42;14.43;;;;;;;0.14;100.00;102294.13;4994463;28;20030;-71
2021/12/22 00:56:38;;;;;;;26.17;14.27;;;;;;;0.22;100.00;102297.06;4994632;28;20026;-71
2021/12/22 00:59:23;;;;;;;26.23;15.40;;;;;;;-0.39;100.00;102290.53;4993457;28;20174;-71
2021/12/22 01:02:11;;;;;;;27.73;15.75;;;;;;;-0.31;100.00;102287.53;4980766;28;20026;-71
2021/12/22 01:04:57;;;;;;;26.40;15.45;;;;;;;-0.02;100.00;102292.47;4994222;28;20108;-71
2021/12/22 01:07:45;;;;;;;32.55;15.80;;;;;;;0.12;100.00;102293.13;4994600;28;20030;-71
2021/12/22 01:10:32;;;;;;;29.20;16.27;;;;;;;0.30;100.00;102291.47;4980770;28;20363;-73
2021/12/22 01:13:18;;;;;;;28.83;16.02;;;;;;;0.35;100.00;102282.25;4980157;28;20038;-72
2021/12/22 01:16:04;;;;;;;27.38;15.10;;;;;;;0.21;100.00;102283.31;4994399;28;20027;-73
2021/12/22 01:18:49;;;;;;;26.70;16.30;;;;;;;0.15;100.00;102282.13;4995024;28;20034;-71
2021/12/22 01:21:42;;;;;;;33.42;16.35;;;;;;;-0.01;100.00;102278.78;4980496;28;20512;-71
2021/12/22 01:24:34;;;;;;;30.55;16.50;;;;;;;0.28;100.00;102287.06;4994026;28;20371;-72
2021/12/22 01:27:24;;;;;;;32.72;18.02;;;;;;;0.17;100.00;102283.06;4980770;28;20030;-71
2021/12/22 01:30:19;;;;;;;34.13;18.58;;;;;;;0.26;100.00;102283.50;4994471;28;20054;-72
2021/12/22 01:33:05;;;;;;;36.15;19.08;;;;;;;0.33;100.00;102286.47;4979297;28;20026;-71
2021/12/22 01:35:50;;;;;;;34.08;18.30;;;;;;;-0.27;100.00;102278.28;4994157;28;20110;-72
2021/12/22 01:38:36;;;;;;;35.13;18.40;;;;;;;-0.34;100.00;102276.19;4982709;28;20455;-71
2021/12/22 01:41:22;;;;;;;31.92;17.35;;;;;;;-0.31;100.00;102274.66;4997782;28;20092;-71
2021/12/22 01:44:10;;;;;;;28.48;16.25;;;;;;;-0.21;100.00;102274.31;4998308;28;20053;-71
2021/12/22 01:50:09;;;;;;;27.83;15.50;;;;;;;0.07;100.00;102278.28;4997666;28;20442;-71
2021/12/22 01:52:54;;;;;;;29.17;15.48;;;;;;;0.04;100.00;102273.84;4997165;28;20045;-71
2021/12/22 01:55:44;;;;;;;26.50;14.73;;;;;;;-0.34;100.00;102273.63;4983824;28;20368;-71
2021/12/22 01:58:37;;;;;;;23.83;14.13;;;;;;;-0.23;100.00;102269.91;4997461;28;20030;-70
2021/12/22 02:01:24;;;;;;;23.45;13.18;;;;;;;-0.34;100.00;102261.66;4997852;28;20030;-71
2021/12/22 02:04:12;;;;;;;22.42;13.20;;;;;;;-0.31;100.00;102255.78;4984401;28;20169;-70
2021/12/22 02:06:57;;;;;;;25.63;14.38;;;;;;;-0.08;100.00;102261.25;4983738;28;20030;-71
2021/12/22 02:12:47;;;;;;;26.75;13.07;;;;;;;-0.03;100.00;102264.06;4997604;28;20022;-71
2021/12/22 02:15:34;;;;;;;20.60;12.48;;;;;;;0.04;100.00;102269.59;4982912;28;20027;-71
2021/12/22 02:18:21;;;;;;;19.13;11.57;;;;;;;-0.04;100.00;102268.31;4996616;28;20030;-72
2021/12/22 02:21:07;;;;;;;23.92;12.90;;;;;;;-0.01;100.00;102271.06;4996718;28;20486;-71
2021/12/22 02:23:53;;;;;;;19.80;12.18;;;;;;;0.23;100.00;102271.34;4997484;28;20471;-72
2021/12/22 02:29:38;;;;;;;22.45;12.80;;;;;;;0.29;100.00;102261.38;4996835;28;20022;-71
2021/12/22 02:38:39;;;;;;;19.40;11.23;;;;;;;-0.26;100.00;102252.63;4969452;28;20455;-71
2021/12/22 02:41:29;;;;;;;23.40;12.10;;;;;;;-0.01;100.00;102249.56;4996599;28;20034;-71
2021/12/22 02:44:14;;;;;;;18.50;11.50;;;;;;;-0.37;100.00;102251.19;4996610;28;20068;-71
2021/12/22 02:47:15;;;;;;;22.67;13.00;;;;;;;0.15;100.00;102254.63;4996388;28;20112;-72
2021/12/22 02:50:03;;;;;;;21.08;12.65;;;;;;;-0.05;100.00;102256.25;4996264;28;20117;-71
2021/12/22 02:55:48;;;;;;;20.95;11.98;;;;;;;0.13;100.00;102254.56;4997534;28;20037;-72
2021/12/22 02:58:42;;;;;;;23.58;12.75;;;;;;;0.10;100.00;102245.81;4995869;28;20045;-72
2021/12/22 03:04:29;;;;;;;19.55;11.93;;;;;;;-0.33;100.00;102252.22;4996385;28;20038;-71
2021/12/22 03:07:17;;;;;;;21.48;12.95;;;;;;;-0.23;100.00;102250.19;4996309;28;20045;-71
2021/12/22 03:10:09;;;;;;;23.75;12.98;;;;;;;-0.08;100.00;102260.38;4997261;28;20537;-70
2021/12/22 03:13:01;;;;;;;22.73;12.38;;;;;;;-0.35;100.00;102253.84;4982578;28;20039;-72
2021/12/22 03:15:47;;;;;;;20.65;11.63;;;;;;;0.16;100.00;102258.97;4995972;28;20037;-72
2021/12/22 03:18:34;;;;;;;22.83;11.68;;;;;;;0.12;100.00;102258.78;4983766;28;20026;-71
2021/12/22 03:21:22;;;;;;;21.35;11.38;;;;;;;0.04;100.00;102255.81;4995552;28;20487;-71
2021/12/22 03:24:09;;;;;;;21.50;11.63;;;;;;;0.08;100.00;102253.47;4982754;28;20081;-71
2021/12/22 03:26:59;;;;;;;24.13;12.75;;;;;;;-0.15;100.00;102263.47;4995821;28;20030;-71
2021/12/22 03:29:45;;;;;;;21.75;12.43;;;;;;;-0.26;100.00;102268.06;4995512;28;20042;-72
2021/12/22 03:32:30;;;;;;;22.95;12.77;;;;;;;-0.11;100.00;102270.53;4996819;28;20037;-71
2021/12/22 03:35:19;;;;;;;26.27;13.07;;;;;;;-0.28;100.00;102273.97;4995198;28;20026;-72
2021/12/22 03:38:05;;;;;;;22.05;12.30;;;;;;;0.21;100.00;102283.31;4996259;28;20068;-71
2021/12/22 03:40:51;;;;;;;26.17;14.23;;;;;;;-0.07;100.00;102280.19;4982255;28;20026;-72
2021/12/22 03:43:37;;;;;;;24.65;14.23;;;;;;;-0.07;100.00;102282.75;4995913;28;20034;-71
2021/12/22 03:46:23;;;;;;;23.65;12.95;;;;;;;-0.13;100.00;102277.28;4995489;28;20123;-71
2021/12/22 03:49:11;;;;;;;21.85;12.18;;;;;;;0.01;100.00;102278.88;4996628;28;20030;-71
2021/12/22 03:51:57;;;;;;;19.20;11.80;;;;;;;-0.15;100.00;102281.47;4995650;28;20030;-71
2021/12/22 03:54:43;;;;;;;22.98;12.38;;;;;;;-0.34;100.00;102277.09;4982515;28;20030;-73
2021/12/22 03:57:29;;;;;;;22.80;12.98;;;;;;;-0.47;100.00;102284.13;4995227;28;20056;-72
2021/12/22 04:00:16;;;;;;;21.73;12.15;;;;;;;-1.23;100.00;102289.47;4996150;28;20357;-73
2021/12/22 04:03:03;;;;;;;20.85;12.55;;;;;;;-1.56;100.00;102282.44;4994529;28;20026;-71
2021/12/22 04:05:50;;;;;;;20.38;12.52;;;;;;;-1.68;100.00;102283.47;4995558;28;20349;-71
2021/12/22 04:08:35;;;;;;;23.02;12.32;;;;;;;-1.97;100.00;102281.81;4996175;28;20439;-72
2021/12/22 04:11:21;;;;;;;22.40;12.45;;;;;;;-1.64;100.00;102290.56;4994896;28;20092;-72
2021/12/22 04:14:07;;;;;;;23.15;12.50;;;;;;;-1.65;100.00;102291.38;4994888;28;20105;-72
2021/12/22 04:16:53;;;;;;;26.35;13.75;;;;;;;-1.77;100.00;102300.94;4994788;28;20030;-72
2021/12/22 04:19:39;;;;;;;24.77;13.13;;;;;;;-1.74;100.00;102298.53;4994429;28;20022;-71
2021/12/22 04:22:25;;;;;;;24.45;12.82;;;;;;;-2.03;100.00;102293.41;4994790;28;20030;-72
2021/12/22 04:25:19;;;;;;;20.23;11.68;;;;;;;-1.76;100.00;102297.56;4995311;28;20092;-72
2021/12/22 04:28:09;;;;;;;24.83;13.73;;;;;;;-1.82;100.00;102299.78;4995333;28;20023;-71
2021/12/22 04:30:54;;;;;;;28.83;15.45;;;;;;;-1.49;100.00;102301.69;4995256;28;20037;-71
2021/12/22 04:33:40;;;;;;;29.40;15.10;;;;;;;-1.80;100.00;102304.19;4993589;28;20038;-71
2021/12/22 04:36:26;;;;;;;28.00;14.02;;;;;;;-2.15;100.00;102305.53;4994200;28;20026;-71
2021/12/22 04:39:12;;;;;;;26.42;13.63;;;;;;;-2.11;100.00;102307.50;4980896;28;20030;-72
2021/12/22 04:41:58;;;;;;;29.65;14.00;;;;;;;-1.79;100.00;102307.66;4994943;28;20423;-72
2021/12/22 04:44:44;;;;;;;23.95;14.18;;;;;;;-1.91;100.00;102306.97;4994200;28;20395;-72
2021/12/22 04:47:31;;;;;;;25.85;13.23;;;;;;;-2.31;100.00;102321.75;4994320;28;20042;-72
2021/12/22 04:50:18;;;;;;;26.80;13.15;;;;;;;-2.19;100.00;102319.00;4981217;28;20042;-72
2021/12/22 04:53:23;;;;;;;25.52;13.38;;;;;;;-2.04;100.00;102309.63;4981150;28;20112;-72
2021/12/22 04:56:10;;;;;;;23.02;13.18;;;;;;;-1.93;100.00;102308.56;4995241;28;20031;-72
2021/12/22 04:58:55;;;;;;;24.63;13.32;;;;;;;-2.17;100.00;102313.16;4993786;28;20095;-72
2021/12/22 05:01:41;;;;;;;25.92;14.55;;;;;;;-2.22;100.00;102313.66;4994905;28;20512;-71
2021/12/22 05:04:27;;;;;;;27.27;15.23;;;;;;;-2.37;100.00;102323.06;4994734;28;20144;-70
2021/12/22 05:07:13;;;;;;;27.38;16.02;;;;;;;-2.22;100.00;102317.13;4994579;28;20068;-72
2021/12/22 05:09:59;;;;;;;28.52;15.73;;;;;;;-2.24;100.00;102311.03;4995271;28;20495;-73
2021/12/22 05:12:46;;;;;;;29.35;16.08;;;;;;;-2.12;100.00;102311.75;4995844;28;20110;-72
2021/12/22 05:15:38;;;;;;;29.90;17.40;;;;;;;-1.92;100.00;102313.78;4998261;28;20448;-71
2021/12/22 05:18:36;;;;;;;36.42;19.67;;;;;;;-2.33;100.00;102325.88;4997183;28;20109;-72
2021/12/22 05:21:24;;;;;;;36.13;20.20;;;;;;;-1.96;100.00;102323.78;4984525;28;20022;-72
2021/12/22 05:24:10;;;;;;;43.33;21.98;;;;;;;-2.32;100.00;102332.81;4998777;28;20400;-71
2021/12/22 05:26:56;;;;;;;41.13;21.25;;;;;;;-2.06;100.00;102331.75;4984373;28;20034;-72
2021/12/22 05:29:42;;;;;;;40.95;22.10;;;;;;;-1.85;100.00;102322.75;4998522;28;20023;-72
2021/12/22 05:32:31;;;;;;;37.28;19.55;;;;;;;-2.26;100.00;102324.56;4984423;28;20036;-71
2021/12/22 05:35:17;;;;;;;36.95;19.63;;;;;;;-2.11;100.00;102331.50;4997658;28;20030;-72
2021/12/22 05:38:03;;;;;;;38.47;18.50;;;;;;;-2.13;100.00;102332.22;4998131;28;20447;-72
2021/12/22 05:40:49;;;;;;;34.08;16.70;;;;;;;-2.04;100.00;102341.34;4997780;28;20030;-72
2021/12/22 05:43:35;;;;;;;33.45;16.38;;;;;;;-2.52;100.00;102347.78;4998523;28;20098;-72
2021/12/22 05:46:21;;;;;;;36.72;18.23;;;;;;;-2.32;100.00;102349.88;4996825;28;20124;-71
2021/12/22 05:49:07;;;;;;;31.23;17.58;;;;;;;-2.06;100.00;102345.47;4997566;28;20041;-72
2021/12/22 05:51:53;;;;;;;37.33;18.00;;;;;;;-2.53;100.00;102339.19;4984824;28;20363;-72
2021/12/22 05:54:38;;;;;;;34.03;17.33;;;;;;;-2.69;100.00;102351.03;4983556;28;20069;-72
2021/12/22 05:57:24;;;;;;;37.03;17.95;;;;;;;-2.63;100.00;102349.72;4983091;28;20407;-72
2021/12/22 06:00:11;;;;;;;32.63;16.92;;;;;;;-2.50;100.00;102349.66;4983581;28;20038;-73
2021/12/22 06:02:57;;;;;;;32.00;17.45;;;;;;;-2.21;100.00;102353.97;4998083;28;20427;-72
2021/12/22 06:05:43;;;;;;;33.80;18.00;;;;;;;-2.07;100.00;102338.59;4997516;28;20030;-72
2021/12/22 06:08:28;;;;;;;43.40;17.55;;;;;;;-2.10;100.00;102346.09;4984602;28;20033;-71
2021/12/22 06:11:14;;;;;;;45.40;21.25;;;;;;;-1.63;100.00;102341.13;4997715;28;20030;-72
2021/12/22 06:14:00;;;;;;;36.95;19.23;;;;;;;-1.43;100.00;102348.28;4997821;28;20045;-72
2021/12/22 06:16:46;;;;;;;39.35;19.92;;;;;;;-1.11;100.00;102345.81;4999549;28;20041;-76
2021/12/22 06:20:23;;;;;;;38.75;20.75;;;;;;;-0.61;100.00;102350.31;4998085;28;20349;-74
2021/12/22 06:23:09;;;;;;;43.40;20.63;;;;;;;-0.59;100.00;102350.41;4996814;28;20034;-71
2021/12/22 06:25:55;;;;;;;36.53;20.33;;;;;;;-0.46;100.00;102352.81;4971002;28;20122;-73
2021/12/22 06:28:40;;;;;;;38.00;19.67;;;;;;;-0.27;100.00;102350.41;4997917;28;20027;-71
2021/12/22 06:31:26;;;;;;;37.90;19.38;;;;;;;-0.68;100.00;102355.94;4998154;28;20514;-73
2021/12/22 06:34:12;;;;;;;40.13;22.38;;;;;;;-0.82;100.00;102351.75;4997169;28;20114;-72
2021/12/22 06:36:58;;;;;;;41.00;22.05;;;;;;;-1.14;100.00;102358.50;4996379;28;20027;-73
2021/12/22 06:39:44;;;;;;;42.13;22.15;;;;;;;-1.37;100.00;102362.38;4995903;28;20451;-72
2021/12/22 06:42:30;;;;;;;41.90;23.13;;;;;;;-1.40;100.00;102361.31;4996860;28;20045;-72
2021/12/22 06:45:16;;;;;;;42.60;23.95;;;;;;;-1.50;100.00;102359.91;4996878;28;20018;-73
2021/12/22 06:48:02;;;;;;;44.15;24.38;;;;;;;-1.63;100.00;102370.28;4996615;28;20356;-72
2021/12/22 06:50:48;;;;;;;48.45;24.75;;;;;;;-1.73;100.00;102369.69;4997904;28;20030;-72
2021/12/22 06:53:36;;;;;;;45.60;25.60;;;;;;;-1.41;100.00;102374.97;4996844;28;20030;-73
2021/12/22 06:56:22;;;;;;;50.80;26.70;;;;;;;-1.56;100.00;102364.69;4983696;28;20038;-72
2021/12/22 06:59:08;;;;;;;51.67;27.45;;;;;;;-1.16;100.00;102365.25;4983341;28;20462;-73
2021/12/22 07:01:54;;;;;;;52.58;25.88;;;;;;;-0.53;100.00;102369.63;4982273;28;20038;-72
2021/12/22 07:04:40;;;;;;;59.42;25.52;;;;;;;-0.11;100.00;102383.88;4996483;28;20022;-71
2021/12/22 07:07:26;;;;;;;43.53;21.67;;;;;;;-0.06;100.00;102382.41;4996420;28;20026;-73
2021/12/22 07:10:12;;;;;;;51.65;25.45;;;;;;;0.24;100.00;102378.78;4982971;28;20026;-73
2021/12/22 07:12:58;;;;;;;50.47;23.92;;;;;;;-0.06;100.00;102378.13;4982755;28;20026;-72
2021/12/22 07:15:44;;;;;;;47.30;22.63;;;;;;;0.32;100.00;102382.63;4996135;28;20034;-72
2021/12/22 07:18:32;;;;;;;49.92;24.30;;;;;;;0.24;100.00;102378.78;4982782;28;20026;-72
2021/12/22 07:21:18;;;;;;;48.20;23.85;;;;;;;0.73;100.00;102385.56;4982195;28;20340;-72
2021/12/22 07:24:05;;;;;;;45.42;23.25;;;;;;;0.46;100.00;102381.63;4995952;28;20041;-72
2021/12/22 07:26:50;;;;;;;41.63;21.13;;;;;;;0.85;100.00;102382.69;4996106;28;20038;-73
2021/12/22 07:29:37;;;;;;;39.13;20.60;;;;;;;0.76;100.00;102387.41;4995659;28;20485;-72
2021/12/22 07:32:23;;;;;;;39.88;21.50;;;;;;;1.03;100.00;102381.84;4996629;28;20037;-72
2021/12/22 07:35:15;;;;;;;35.45;19.35;;;;;;;0.32;100.00;102381.75;4995328;28;20085;-72
2021/12/22 07:38:10;;;;;;;38.38;19.10;;;;;;;0.65;100.00;102383.41;4996045;28;20498;-72
2021/12/22 07:40:56;;;;;;;35.90;19.30;;;;;;;0.93;100.00;102381.34;4995491;28;20041;-73
2021/12/22 07:43:42;;;;;;;38.97;20.77;;;;;;;1.35;100.00;102383.34;4996109;28;20100;-72
2021/12/22 07:46:28;;;;;;;46.45;22.55;;;;;;;2.00;100.00;102376.81;4995801;28;20133;-72
2021/12/22 07:49:14;;;;;;;46.25;22.80;;;;;;;1.53;100.00;102382.47;4995420;28;20029;-71
2021/12/22 07:52:00;;;;;;;58.00;25.58;;;;;;;1.37;100.00;102386.91;4995349;28;20320;-72
2021/12/22 07:54:45;;;;;;;51.65;25.00;;;;;;;1.75;100.00;102397.25;4982091;28;20089;-73
2021/12/22 07:57:31;;;;;;;59.15;25.80;;;;;;;1.18;100.00;102386.84;4995811;28;20030;-73
2021/12/22 08:00:17;;;;;;;41.55;22.05;;;;;;;1.08;100.00;102393.28;4994996;28;20432;-73
2021/12/22 08:03:04;;;;;;;50.85;23.02;;;;;;;0.56;100.00;102380.41;4995661;28;20030;-74
2021/12/22 08:05:51;;;;;;;44.13;22.25;;;;;;;1.66;100.00;102392.56;4994463;28;20022;-73
2021/12/22 08:08:37;;;;;;;41.47;20.95;;;;;;;1.60;100.00;102392.28;4995179;28;20034;-72
2021/12/22 08:11:23;;;;;;;42.85;19.95;;;;;;;0.83;100.00;102387.78;4995444;28;20022;-72
2021/12/22 08:14:09;;;;;;;37.15;20.17;;;;;;;1.67;100.00;102393.44;4995118;28;20022;-73
2021/12/22 08:16:54;;;;;;;39.00;19.10;;;;;;;1.53;100.00;102395.38;4994812;28;20412;-71
2021/12/22 08:19:41;;;;;;;34.70;20.20;;;;;;;2.23;100.00;102391.63;4995378;28;20056;-71
2021/12/22 08:22:27;;;;;;;43.17;19.77;;;;;;;2.28;100.00;102398.75;4994774;28;20026;-72
2021/12/22 08:25:13;;;;;;;33.22;18.60;;;;;;;1.60;100.00;102400.03;4994413;28;20022;-72
2021/12/22 08:27:58;;;;;;;47.85;19.98;;;;;;;1.86;100.00;102393.44;4994445;28;20030;-74
2021/12/22 08:30:45;;;;;;;38.80;21.65;;;;;;;1.66;100.00;102400.31;4994817;28;20119;-73
2021/12/22 08:33:37;;;;;;;45.50;24.20;;;;;;;1.58;100.00;102405.94;4981651;28;20033;-72
2021/12/22 08:39:31;;;;;;;47.58;22.90;;;;;;;1.55;100.00;102410.97;4994658;28;20031;-72
2021/12/22 08:42:17;;;;;;;40.92;20.90;;;;;;;1.88;100.00;102412.50;4995011;28;20447;-72
2021/12/22 08:45:05;;;;;;;35.30;20.00;;;;;;;1.12;100.00;102421.00;4994681;28;20042;-72
2021/12/22 08:47:50;;;;;;;35.63;18.88;;;;;;;1.97;100.00;102410.31;4993224;28;20053;-72
2021/12/22 08:50:36;;;;;;;33.92;17.63;;;;;;;1.79;100.00;102404.31;4995452;28;20041;-72
2021/12/22 08:53:22;;;;;;;29.85;17.10;;;;;;;0.81;100.00;102404.00;4993449;28;20128;-73
2021/12/22 08:56:08;;;;;;;36.50;18.58;;;;;;;1.35;100.00;102401.41;4994555;28;20026;-72
2021/12/22 08:58:54;;;;;;;36.60;19.52;;;;;;;0.58;100.00;102400.28;4994154;28;20073;-73
2021/12/22 09:01:40;;;;;;;36.25;20.08;;;;;;;1.58;100.00;102403.38;4994873;28;20046;-72
2021/12/22 09:04:26;;;;;;;36.10;19.55;;;;;;;1.35;100.00;102398.84;4993758;28;20058;-73
2021/12/22 09:07:12;;;;;;;41.88;21.33;;;;;;;1.99;100.00;102393.16;4993587;28;20133;-74
2021/12/22 09:09:58;;;;;;;39.40;22.73;;;;;;;1.18;100.00;102398.06;4993179;28;20026;-71
2021/12/22 09:12:44;;;;;;;48.60;23.10;;;;;;;1.40;100.00;102397.38;4994885;28;20041;-73
2021/12/22 09:15:29;;;;;;;38.35;20.98;;;;;;;0.96;100.00;102397.00;4994218;28;20038;-72
2021/12/22 09:18:17;;;;;;;38.80;21.38;;;;;;;1.82;100.00;102392.44;4993664;28;20057;-72
2021/12/22 09:21:04;;;;;;;35.58;20.50;;;;;;;2.40;100.00;102388.94;4980920;28;20054;-73
2021/12/22 09:23:50;;;;;;;36.40;19.58;;;;;;;2.47;100.00;102384.91;4993648;28;20046;-71
2021/12/22 09:26:36;;;;;;;31.08;17.30;;;;;;;2.63;100.00;102388.19;4994454;28;20453;-73
2021/12/22 09:29:26;;;;;;;28.08;15.75;;;;;;;2.64;100.00;102382.19;4993953;28;20041;-72
2021/12/22 09:32:15;;;;;;;27.95;14.52;;;;;;;2.02;100.00;102372.63;4992960;28;20023;-72
2021/12/22 09:35:00;;;;;;;24.63;13.95;;;;;;;2.57;100.00;102376.72;4993170;28;20027;-72
2021/12/22 09:37:46;;;;;;;18.73;11.02;;;;;;;2.13;100.00;102377.41;4995150;28;20093;-73
2021/12/22 09:40:32;;;;;;;17.52;10.85;;;;;;;2.46;100.00;102381.44;4981204;28;20050;-72
2021/12/22 09:43:18;;;;;;;18.25;10.65;;;;;;;1.46;100.00;102379.56;4993720;28;20026;-72
2021/12/22 09:46:09;;;;;;;22.27;10.98;;;;;;;1.91;100.00;102366.09;4993712;28;20527;-72
2021/12/22 09:49:06;;;;;;;19.63;10.90;;;;;;;2.21;100.00;102364.84;4994348;28;20073;-73
2021/12/22 09:55:00;;;;;;;23.75;10.38;;;;;;;2.74;100.00;102373.09;4983721;28;20022;-72
2021/12/22 09:57:46;;;;;;;15.80;9.73;;;;;;;2.08;100.00;102371.19;4993824;28;20034;-72
2021/12/22 10:00:35;;;;;;;17.60;10.07;;;;;;;2.53;100.00;102367.06;4996534;28;20515;-72
2021/12/22 10:03:22;;;;;;;18.35;9.65;;;;;;;2.05;100.00;102363.28;4996845;28;20049;-72
2021/12/22 10:06:11;;;;;;;18.42;10.30;;;;;;;2.30;100.00;102360.03;4997749;28;20018;-71
2021/12/22 10:09:04;;;;;;;17.05;10.35;;;;;;;2.58;100.00;102362.94;4997750;28;20046;-72
2021/12/22 10:11:51;;;;;;;24.15;12.82;;;;;;;1.94;100.00;102359.38;4997331;28;20030;-73
2021/12/22 10:14:47;;;;;;;17.33;9.77;;;;;;;2.75;100.00;102360.22;4998085;28;20022;-72
2021/12/22 10:17:39;;;;;;;23.15;9.98;;;;;;;2.88;100.00;102353.81;4996315;28;20112;-72
2021/12/22 10:20:25;;;;;;;16.20;9.25;;;;;;;2.91;100.00;102353.94;4998031;28;20133;-73
2021/12/22 10:23:24;;;;;;;14.95;9.02;;;;;;;2.71;100.00;102347.97;4997488;28;20349;-71
2021/12/22 10:26:10;;;;;;;18.35;10.60;;;;;;;2.97;100.00;102349.88;4996187;28;20030;-73
2021/12/22 10:29:01;;;;;;;14.82;9.52;;;;;;;3.37;100.00;102342.81;4997175;28;20030;-71
2021/12/22 10:31:47;;;;;;;15.13;9.02;;;;;;;3.10;100.00;102352.09;4996492;28;20340;-72
2021/12/22 10:34:33;;;;;;;16.60;9.35;;;;;;;3.12;100.00;102345.28;4996810;28;20098;-72
2021/12/22 10:37:40;;;;;;;17.77;9.68;;;;;;;3.85;100.00;102339.41;4997064;28;20026;-72
2021/12/22 10:40:39;;;;;;;15.10;9.38;;;;;;;3.51;100.00;102343.31;4981855;28;20069;-73
2021/12/22 10:43:28;;;;;;;14.77;9.38;;;;;;;3.41;99.04;102339.50;4981830;28;20033;-72
2021/12/22 10:46:27;;;;;;;18.02;9.07;;;;;;;3.82;97.60;102333.22;4996021;28;20054;-73
2021/12/22 10:49:23;;;;;;;19.05;10.43;;;;;;;4.00;96.67;102324.38;4998794;28;20129;-72
2021/12/22 10:52:08;;;;;;;19.38;10.55;;;;;;;3.73;95.43;102322.50;4983259;28;20144;-72
2021/12/22 10:55:13;;;;;;;18.65;9.23;;;;;;;4.22;91.57;102326.00;4997948;28;20023;-74
2021/12/22 10:57:59;;;;;;;18.30;10.27;;;;;;;4.60;90.00;102329.03;4997333;28;20060;-72
2021/12/22 11:01:09;;;;;;;15.15;9.60;;;;;;;4.46;86.49;102324.22;4995208;28;20027;-71
2021/12/22 11:04:02;;;;;;;16.27;10.77;;;;;;;4.64;89.24;102322.19;4996889;28;20041;-73
2021/12/22 11:06:50;;;;;;;18.75;10.75;;;;;;;4.12;88.57;102314.44;4997147;28;20022;-72
2021/12/22 11:09:37;;;;;;;19.95;11.20;;;;;;;4.34;88.76;102319.47;4996009;28;20408;-72
2021/12/22 11:12:38;;;;;;;18.58;11.27;;;;;;;4.35;89.07;102321.25;4995633;28;20034;-72
2021/12/22 11:15:25;;;;;;;21.58;11.90;;;;;;;4.13;92.55;102316.19;4996118;28;20494;-72
2021/12/22 11:18:28;;;;;;;22.58;12.88;;;;;;;4.57;93.58;102315.03;4996768;28;20046;-71
2021/12/22 11:21:19;;;;;;;19.30;11.80;;;;;;;3.97;95.85;102315.59;4996871;28;20042;-71
2021/12/22 11:24:05;;;;;;;21.08;11.93;;;;;;;3.46;97.34;102312.03;4997109;28;20433;-71
2021/12/22 11:26:54;;;;;;;18.10;11.00;;;;;;;3.83;97.59;102306.47;4982846;28;20447;-72
2021/12/22 11:29:45;;;;;;;20.08;11.18;;;;;;;3.54;96.51;102309.75;4996971;28;20062;-73
2021/12/22 11:32:33;;;;;;;18.90;11.45;;;;;;;3.44;98.52;102307.63;4995932;28;20117;-72
2021/12/22 11:35:20;;;;;;;22.13;11.45;;;;;;;4.37;94.09;102306.63;4982814;28;20034;-73
2021/12/22 11:38:06;;;;;;;18.75;10.95;;;;;;;3.60;96.96;102295.31;4994840;28;20042;-71
2021/12/22 11:41:06;;;;;;;17.58;10.27;;;;;;;3.67;96.72;102299.00;4995401;28;20098;-72
2021/12/22 11:43:52;;;;;;;24.00;12.07;;;;;;;3.42;99.38;102294.63;4994396;28;20455;-73
2021/12/22 11:46:40;;;;;;;18.85;11.05;;;;;;;3.93;99.53;102298.16;4995810;28;20368;-72
2021/12/22 11:49:27;;;;;;;18.67;11.20;;;;;;;3.55;100.00;102301.13;4995340;28;20347;-73
2021/12/22 11:52:34;;;;;;;17.42;10.77;;;;;;;3.57;100.00;102284.81;4995301;28;20116;-72
2021/12/22 11:55:23;;;;;;;17.77;10.80;;;;;;;3.74;100.00;102288.88;4996437;28;20356;-72
2021/12/22 11:58:17;;;;;;;17.77;10.48;;;;;;;3.58;100.00;102283.97;4994629;28;20030;-72
2021/12/22 12:01:09;;;;;;;17.90;10.70;;;;;;;3.20;100.00;102286.00;4995379;28;20096;-72
2021/12/22 12:04:12;;;;;;;21.67;11.40;;;;;;;3.68;100.00;102283.50;4995165;28;20030;-72
2021/12/22 12:07:00;;;;;;;20.50;11.38;;;;;;;4.25;100.00;102285.47;4995280;28;20181;-72
2021/12/22 12:09:47;;;;;;;19.13;11.25;;;;;;;3.66;100.00;102285.13;4995628;28;20026;-72
2021/12/22 12:12:56;;;;;;;19.65;10.82;;;;;;;3.91;100.00;102277.38;4995845;28;20058;-71
2021/12/22 12:21:37;;;;;;;17.35;10.38;;;;;;;3.87;100.00;102285.88;4996130;28;20085;-73
2021/12/22 12:22:22;;;;;;;21.40;12.93;;;;;;;4.25;99.98;102293.25;4994124;28;20038;-72
2021/12/22 12:25:14;;;;;;;16.92;10.48;;;;;;;3.60;100.00;102281.44;4982187;28;20038;-72
2021/12/22 12:28:14;;;;;;;16.25;10.07;;;;;;;3.33;100.00;102288.22;4981546;28;20026;-72
2021/12/22 12:31:00;;;;;;;19.15;10.90;;;;;;;4.07;100.00;102296.94;4982016;28;20038;-73
2021/12/22 12:33:46;;;;;;;22.50;11.85;;;;;;;3.66;100.00;102292.91;4995281;28;20026;-72
2021/12/22 12:36:32;;;;;;;17.63;10.38;;;;;;;3.69;100.00;102290.44;4995906;28;20374;-74
2021/12/22 12:39:55;;;;;;;19.15;11.57;;;;;;;3.45;100.00;102294.75;4995312;28;20443;-73
2021/12/22 12:42:58;;;;;;;22.95;13.40;;;;;;;3.81;100.00;102293.44;4995565;28;20022;-73
2021/12/22 12:45:48;;;;;;;19.10;11.10;;;;;;;3.59;100.00;102290.97;4994297;28;20510;-74
2021/12/22 12:48:34;;;;;;;18.08;10.43;;;;;;;3.62;100.00;102285.84;4995700;28;20034;-75
2021/12/22 12:51:30;;;;;;;19.25;10.80;;;;;;;3.79;100.00;102289.94;4995861;28;20026;-72
2021/12/22 12:54:16;;;;;;;19.73;11.50;;;;;;;4.04;100.00;102282.16;4995677;28;20057;-75
2021/12/22 12:57:23;;;;;;;25.35;12.02;;;;;;;3.34;100.00;102285.69;4994100;28;20030;-73
2021/12/22 13:00:19;;;;;;;19.83;11.50;;;;;;;3.53;100.00;102280.34;4993215;28;20030;-72
2021/12/22 13:03:06;;;;;;;21.80;11.88;;;;;;;3.73;100.00;102281.03;4994736;28;20045;-72
2021/12/22 13:05:52;;;;;;;19.17;11.82;;;;;;;3.72;100.00;102281.88;4994442;28;20022;-73
2021/12/22 13:08:38;;;;;;;17.17;11.25;;;;;;;4.25;100.00;102275.09;4995624;28;20030;-72
2021/12/22 13:11:24;;;;;;;19.02;11.68;;;;;;;4.01;100.00;102278.56;4992778;28;20033;-73
2021/12/22 13:17:42;;;;;;;24.02;13.32;;;;;;;3.56;100.00;102275.28;4982692;28;20026;-70